createdAt,value
2022-08-08T00:00:50.385Z,61.39
2022-08-08T00:00:52.784Z,61.39
2022-08-08T00:01:11.338Z,60.98
2022-08-08T00:02:32.864Z,61.08
2022-08-08T00:03:19.906Z,61.29
2022-08-08T00:04:11.277Z,61.29
2022-08-08T00:05:11.210Z,61.59
2022-08-08T00:06:10.210Z,61.62
2022-08-08T00:07:12.966Z,61.72
2022-08-08T00:08:10.180Z,62.12
2022-08-08T00:09:12.156Z,62.02
2022-08-08T00:10:11.161Z,62.02
2022-08-08T00:11:13.092Z,62.33
2022-08-08T00:12:10.652Z,62.12
2022-08-08T00:13:10.537Z,62.23
2022-08-08T00:14:15.912Z,62.33
2022-08-08T00:15:13.157Z,62.33
2022-08-08T00:16:11.090Z,62.43
2022-08-08T00:17:22.929Z,62.43
2022-08-08T00:18:11.090Z,62.63
2022-08-08T00:19:10.052Z,62.63
2022-08-08T00:20:14.467Z,62.96
2022-08-08T00:21:10.030Z,63.07
2022-08-08T00:22:11.022Z,63.17
2022-08-08T00:23:10.010Z,63.37
2022-08-08T00:24:10.012Z,63.47
2022-08-08T00:25:09.991Z,63.78
2022-08-08T00:26:12.974Z,63.90
2022-08-08T00:27:09.961Z,64.21
2022-08-08T00:28:34.210Z,64.51
2022-08-08T00:29:10.960Z,64.51
2022-08-08T00:30:11.280Z,64.92
2022-08-08T00:32:20.678Z,65.02
2022-08-08T00:32:28.532Z,65.02
2022-08-08T00:33:10.891Z,65.12
2022-08-08T00:34:18.567Z,65.36
2022-08-08T00:35:18.643Z,65.76
2022-08-08T00:36:14.856Z,65.96
2022-08-08T00:37:16.301Z,66.06
2022-08-08T00:38:16.717Z,66.27
2022-08-08T00:41:06.451Z,66.47
2022-08-08T00:41:12.008Z,66.50
2022-08-08T00:41:14.762Z,66.70
2022-08-08T00:42:19.840Z,66.91
2022-08-08T00:43:18.567Z,66.80
2022-08-08T00:44:10.772Z,66.80
2022-08-08T00:45:21.453Z,66.70
2022-08-08T00:46:16.150Z,66.80
2022-08-08T00:47:19.470Z,67.21
2022-08-08T00:48:30.306Z,67.51
2022-08-08T00:49:22.160Z,67.21
2022-08-08T00:50:10.702Z,67.11
2022-08-08T00:51:09.903Z,67.41
2022-08-08T00:52:20.096Z,67.61
2022-08-08T00:53:15.644Z,67.51
2022-08-08T00:54:15.353Z,67.92
2022-08-08T00:55:10.641Z,67.82
2022-08-08T00:56:11.498Z,67.72
2022-08-08T00:57:12.771Z,67.72
2022-08-08T00:58:13.688Z,67.92
2022-08-08T00:59:09.600Z,68.02
2022-08-08T01:00:09.587Z,68.15
2022-08-08T01:01:09.598Z,67.95
2022-08-08T01:03:15.358Z,67.95
2022-08-08T01:03:59.402Z,67.82
2022-08-08T01:04:11.243Z,68.02
2022-08-08T01:05:09.524Z,68.02
2022-08-08T01:06:10.851Z,68.43
2022-08-08T01:07:09.504Z,68.26
2022-08-08T01:08:09.493Z,68.15
2022-08-08T01:09:35.874Z,68.35
2022-08-08T01:10:10.471Z,68.56
2022-08-08T01:11:09.457Z,68.66
2022-08-08T01:12:09.443Z,69.07
2022-08-08T01:13:09.435Z,68.96
2022-08-08T01:14:13.643Z,68.96
2022-08-08T01:15:10.413Z,69.57
2022-08-08T01:16:10.404Z,69.37
2022-08-08T01:17:10.387Z,69.51
2022-08-08T01:18:19.712Z,69.47
2022-08-08T01:19:13.915Z,69.51
2022-08-08T01:20:13.179Z,69.60
2022-08-08T01:21:09.344Z,69.30
2022-08-08T01:22:13.380Z,69.71
2022-08-08T01:24:02.363Z,69.40
2022-08-08T01:24:13.826Z,69.30
2022-08-08T01:25:14.471Z,69.17
2022-08-08T01:26:11.386Z,69.27
2022-08-08T01:27:10.833Z,69.27
2022-08-08T01:28:10.265Z,69.27
2022-08-08T01:29:10.254Z,69.17
2022-08-08T01:30:09.245Z,69.27
2022-08-08T01:31:25.808Z,69.17
2022-08-08T01:32:17.059Z,69.27
2022-08-08T01:33:23.772Z,69.27
2022-08-08T01:34:10.195Z,68.96
2022-08-08T01:35:11.086Z,69.17
2022-08-08T01:36:09.174Z,69.17
2022-08-08T01:37:13.655Z,69.17
2022-08-08T01:38:09.172Z,69.57
2022-08-08T01:39:09.134Z,69.37
2022-08-08T01:40:14.812Z,69.27
2022-08-08T01:41:11.522Z,69.47
2022-08-08T01:42:10.115Z,69.07
2022-08-08T01:43:09.095Z,69.27
2022-08-08T01:44:09.095Z,69.17
2022-08-08T01:45:09.901Z,69.27
2022-08-08T01:46:09.077Z,69.17
2022-08-08T01:48:13.847Z,69.07
2022-08-08T01:48:23.806Z,69.17
2022-08-08T01:49:10.822Z,68.96
2022-08-08T01:50:09.017Z,69.07
2022-08-08T01:51:30.475Z,68.96
2022-08-08T01:52:53.119Z,69.17
2022-08-08T01:55:16.260Z,68.96
2022-08-08T01:55:16.959Z,69.07
2022-08-08T01:55:45.198Z,69.07
2022-08-08T01:56:30.558Z,69.17
2022-08-08T01:57:10.733Z,69.37
2022-08-08T01:58:11.580Z,69.47
2022-08-08T01:59:08.907Z,69.37
2022-08-08T02:00:08.907Z,69.51
2022-08-08T02:01:15.780Z,69.60
2022-08-08T02:02:09.904Z,69.40
2022-08-08T02:03:57.445Z,69.40
2022-08-08T02:04:09.856Z,69.81
2022-08-08T02:05:08.837Z,69.81
2022-08-08T02:06:08.834Z,70.01
2022-08-08T02:07:09.866Z,70.01
2022-08-08T02:08:08.807Z,70.32
2022-08-08T02:09:15.937Z,70.32
2022-08-08T02:10:11.934Z,70.32
2022-08-08T02:11:23.012Z,70.42
2022-08-08T02:12:12.494Z,70.62
2022-08-08T02:13:08.777Z,70.72
2022-08-08T02:14:09.772Z,71.03
2022-08-08T02:15:12.306Z,70.86
2022-08-08T02:16:08.719Z,70.96
2022-08-08T02:17:10.608Z,71.06
2022-08-08T02:18:10.311Z,70.96
2022-08-08T02:19:26.793Z,71.26
2022-08-08T02:20:15.981Z,71.06
2022-08-08T02:21:13.257Z,71.26
2022-08-08T02:22:08.650Z,71.47
2022-08-08T02:23:08.637Z,71.47
2022-08-08T02:24:09.647Z,71.26
2022-08-08T02:25:11.801Z,71.67
2022-08-08T02:26:10.283Z,71.26
2022-08-08T02:27:09.173Z,71.26
2022-08-08T02:28:08.578Z,71.57
2022-08-08T02:29:08.566Z,71.57
2022-08-08T02:30:20.811Z,71.47
2022-08-08T02:31:43.153Z,71.26
2022-08-08T02:32:09.558Z,71.36
2022-08-08T02:33:09.518Z,71.36
2022-08-08T02:34:09.718Z,71.16
2022-08-08T02:35:10.826Z,71.16
2022-08-08T02:36:08.508Z,71.03
2022-08-08T02:37:09.797Z,70.83
2022-08-08T02:38:09.311Z,70.83
2022-08-08T02:39:42.402Z,70.92
2022-08-08T02:40:09.508Z,70.83
2022-08-08T02:41:57.987Z,70.92
2022-08-08T02:42:10.665Z,70.83
2022-08-08T02:44:36.884Z,70.92
2022-08-08T02:44:38.863Z,70.83
2022-08-08T02:45:09.661Z,70.96
2022-08-08T02:46:09.391Z,71.26
2022-08-08T02:47:08.360Z,71.47
2022-08-08T02:48:09.029Z,71.36
2022-08-08T02:49:08.339Z,71.36
2022-08-08T02:50:17.641Z,71.36
2022-08-08T02:51:11.909Z,71.26
2022-08-08T02:52:32.618Z,71.13
2022-08-08T02:53:09.302Z,71.23
2022-08-08T02:54:08.281Z,71.13
2022-08-08T02:55:10.497Z,71.36
2022-08-08T02:56:09.258Z,71.47
2022-08-08T02:57:12.057Z,71.47
2022-08-08T02:58:08.237Z,71.47
2022-08-08T02:59:25.843Z,71.67
2022-08-08T03:00:15.860Z,71.57
2022-08-08T03:01:14.875Z,71.67
2022-08-08T03:02:09.237Z,71.67
2022-08-08T03:03:09.184Z,71.67
2022-08-08T03:05:03.297Z,71.67
2022-08-08T03:05:10.755Z,71.67
2022-08-08T03:06:08.139Z,71.77
2022-08-08T03:07:08.161Z,71.67
2022-08-08T03:08:09.138Z,71.77
2022-08-08T03:09:08.111Z,71.77
2022-08-08T03:10:08.099Z,71.77
2022-08-08T03:11:13.885Z,71.67
2022-08-08T03:12:13.986Z,71.88
2022-08-08T03:15:53.487Z,71.88
2022-08-08T03:15:57.397Z,71.88
2022-08-08T03:16:02.090Z,71.97
2022-08-08T03:16:09.271Z,71.88
2022-08-08T03:17:08.558Z,71.67
2022-08-08T03:18:08.011Z,71.77
2022-08-08T03:19:08.010Z,71.88
2022-08-08T03:20:10.487Z,71.97
2022-08-08T03:21:09.596Z,71.77
2022-08-08T03:22:38.942Z,72.08
2022-08-08T03:23:08.959Z,72.28
2022-08-08T03:24:08.961Z,72.38
2022-08-08T03:25:14.454Z,72.48
2022-08-08T03:26:08.912Z,72.52
2022-08-08T03:27:08.091Z,72.72
2022-08-08T03:28:07.892Z,72.72
2022-08-08T03:29:15.029Z,72.82
2022-08-08T03:30:08.891Z,73.02
2022-08-08T03:31:24.975Z,72.92
2022-08-08T03:32:08.893Z,73.02
2022-08-08T03:33:56.915Z,72.92
2022-08-08T03:34:08.830Z,73.33
2022-08-08T03:35:09.438Z,73.02
2022-08-08T03:36:10.358Z,73.13
2022-08-08T03:37:20.222Z,73.02
2022-08-08T03:38:54.276Z,73.13
2022-08-08T03:39:14.856Z,73.22
2022-08-08T03:40:10.654Z,73.02
2022-08-08T03:42:11.550Z,73.02
2022-08-08T03:42:27.023Z,73.22
2022-08-08T03:43:17.947Z,73.13
2022-08-08T03:44:08.711Z,72.92
2022-08-08T03:46:03.143Z,72.82
2022-08-08T03:46:09.068Z,72.92
2022-08-08T03:47:14.177Z,72.92
2022-08-08T03:48:08.661Z,73.22
2022-08-08T03:49:30.853Z,73.22
2022-08-08T03:50:08.652Z,73.33
2022-08-08T03:51:07.632Z,73.53
2022-08-08T03:52:07.652Z,73.57
2022-08-08T03:53:08.612Z,73.77
2022-08-08T03:54:07.592Z,73.77
2022-08-08T03:55:10.446Z,73.43
2022-08-08T03:56:09.570Z,73.53
2022-08-08T03:58:30.839Z,73.74
2022-08-08T03:58:33.454Z,73.77
2022-08-08T03:59:08.542Z,73.77
2022-08-08T04:00:11.816Z,73.97
2022-08-08T04:01:24.521Z,73.77
2022-08-08T04:02:32.628Z,73.87
2022-08-08T04:03:11.143Z,73.67
2022-08-08T04:04:07.545Z,73.87
2022-08-08T04:05:10.223Z,73.77
2022-08-08T04:06:07.462Z,73.67
2022-08-08T04:07:07.453Z,73.53
2022-08-08T04:08:07.473Z,73.22
2022-08-08T04:09:11.255Z,72.92
2022-08-08T04:10:07.412Z,73.02
2022-08-08T04:11:11.043Z,72.92
2022-08-08T04:12:08.382Z,72.62
2022-08-08T04:13:17.383Z,72.38
2022-08-08T04:14:35.454Z,72.38
2022-08-08T04:15:08.376Z,72.58
2022-08-08T04:16:07.343Z,72.38
2022-08-08T04:17:22.239Z,72.48
2022-08-08T04:18:16.434Z,72.82
2022-08-08T04:19:23.485Z,72.92
2022-08-08T04:20:08.482Z,73.13
2022-08-08T04:21:07.292Z,73.02
2022-08-08T04:22:07.273Z,72.92
2022-08-08T04:23:07.834Z,73.02
2022-08-08T04:24:19.480Z,73.22
2022-08-08T04:25:08.272Z,73.13
2022-08-08T04:26:09.368Z,73.02
2022-08-08T04:27:10.345Z,72.92
2022-08-08T04:28:35.266Z,73.02
2022-08-08T04:29:08.637Z,72.82
2022-08-08T04:30:18.194Z,73.02
2022-08-08T04:31:09.352Z,73.02
2022-08-08T04:32:07.482Z,73.13
2022-08-08T04:33:07.938Z,73.02
2022-08-08T04:34:07.137Z,73.02
2022-08-08T04:35:07.125Z,73.33
2022-08-08T04:36:08.143Z,73.33
2022-08-08T04:37:07.104Z,73.22
2022-08-08T04:38:09.592Z,73.13
2022-08-08T04:40:06.066Z,73.22
2022-08-08T04:40:12.110Z,73.13
2022-08-08T04:41:07.521Z,72.89
2022-08-08T04:42:07.066Z,72.69
2022-08-08T04:43:08.882Z,72.69
2022-08-08T04:44:07.023Z,72.69
2022-08-08T04:45:07.014Z,72.99
2022-08-08T04:46:07.005Z,72.78
2022-08-08T04:47:06.999Z,72.58
2022-08-08T04:48:08.185Z,72.58
2022-08-08T04:49:06.966Z,72.58
2022-08-08T04:50:06.960Z,72.48
2022-08-08T04:51:07.945Z,72.38
2022-08-08T04:52:06.935Z,72.28
2022-08-08T04:53:13.917Z,72.28
2022-08-08T04:54:39.680Z,72.17
2022-08-08T04:55:07.905Z,72.25
2022-08-08T04:56:06.887Z,72.04
2022-08-08T04:57:06.879Z,71.73
2022-08-08T04:58:11.060Z,71.73
2022-08-08T04:59:07.854Z,71.64
2022-08-08T05:00:06.856Z,71.33
2022-08-08T05:01:10.968Z,71.13
2022-08-08T05:02:06.860Z,71.13
2022-08-08T05:03:06.819Z,71.00
2022-08-08T05:04:12.678Z,71.00
2022-08-08T05:05:07.807Z,70.89
2022-08-08T05:06:12.790Z,70.69
2022-08-08T05:07:07.766Z,70.69
2022-08-08T05:08:06.747Z,70.48
2022-08-08T05:09:07.736Z,70.59
2022-08-08T05:10:06.772Z,70.59
2022-08-08T05:11:06.745Z,70.48
2022-08-08T05:12:06.705Z,70.48
2022-08-08T05:13:17.494Z,70.39
2022-08-08T05:14:07.677Z,70.65
2022-08-08T05:15:06.667Z,70.56
2022-08-08T05:16:55.000Z,70.45
2022-08-08T05:17:08.713Z,70.25
2022-08-08T05:18:06.637Z,70.05
2022-08-08T05:19:06.666Z,70.35
2022-08-08T05:20:13.202Z,70.05
2022-08-08T05:21:07.609Z,69.95
2022-08-08T05:22:06.820Z,69.84
2022-08-08T05:23:06.606Z,69.95
2022-08-08T05:24:08.785Z,69.61
2022-08-08T05:25:06.557Z,69.61
2022-08-08T05:26:06.591Z,69.41
2022-08-08T05:27:06.665Z,69.20
2022-08-08T05:28:06.528Z,69.10
2022-08-08T05:29:06.653Z,68.90
2022-08-08T05:30:06.501Z,68.56
2022-08-08T05:31:19.424Z,68.77
2022-08-08T05:32:07.956Z,68.87
2022-08-08T05:33:06.568Z,68.46
2022-08-08T05:34:06.476Z,68.16
2022-08-08T05:35:06.467Z,67.85
2022-08-08T05:36:06.504Z,67.82
2022-08-08T05:37:15.938Z,67.62
2022-08-08T05:38:30.569Z,67.62
2022-08-08T05:39:07.418Z,67.42
2022-08-08T05:40:06.396Z,67.42
2022-08-08T05:41:06.377Z,67.22
2022-08-08T05:42:06.360Z,66.88
2022-08-08T05:43:17.306Z,66.98
2022-08-08T05:44:07.340Z,66.67
2022-08-08T05:45:24.373Z,66.55
2022-08-08T05:46:07.861Z,66.64
2022-08-08T05:47:06.309Z,66.44
2022-08-08T05:48:06.299Z,66.14
2022-08-08T05:49:11.028Z,66.21
2022-08-08T05:50:07.281Z,65.91
2022-08-08T05:51:14.615Z,65.91
2022-08-08T05:52:07.241Z,65.61
2022-08-08T05:53:54.015Z,65.47
2022-08-08T05:54:28.138Z,65.27
2022-08-08T05:55:09.924Z,65.27
2022-08-08T05:56:09.492Z,64.94
2022-08-08T05:57:07.190Z,64.53
2022-08-08T05:58:17.658Z,64.00
2022-08-08T05:59:12.729Z,63.59
2022-08-08T06:00:25.357Z,63.26
2022-08-08T06:01:07.162Z,63.16
2022-08-08T06:02:06.131Z,62.43
2022-08-08T06:03:06.181Z,61.92
2022-08-08T06:04:13.583Z,61.49
2022-08-08T06:05:32.796Z,60.35
2022-08-08T06:06:07.083Z,59.84
2022-08-08T06:07:06.108Z,59.42
2022-08-08T06:08:10.157Z,58.58
2022-08-08T06:10:00.666Z,57.55
2022-08-08T06:10:07.040Z,56.62
2022-08-08T06:11:06.032Z,55.55
2022-08-08T06:12:06.023Z,53.57
2022-08-08T06:13:06.021Z,51.79
2022-08-08T06:14:06.002Z,49.90
2022-08-08T06:15:06.329Z,48.25
2022-08-08T06:16:06.638Z,47.00
2022-08-08T06:17:05.963Z,45.96
2022-08-08T06:18:20.521Z,45.22
2022-08-08T06:19:07.358Z,44.18
2022-08-08T06:20:05.924Z,43.05
2022-08-08T06:21:27.871Z,42.55
2022-08-08T06:22:32.331Z,42.29
2022-08-08T06:23:06.913Z,40.68
2022-08-08T06:24:14.015Z,41.00
2022-08-08T06:25:06.874Z,41.08
2022-08-08T06:26:43.544Z,40.78
2022-08-08T06:27:06.857Z,40.80
2022-08-08T06:28:05.836Z,40.70
2022-08-08T06:29:26.211Z,41.12
2022-08-08T06:30:07.323Z,41.20
2022-08-08T06:31:09.572Z,41.22
2022-08-08T06:32:09.903Z,41.63
2022-08-08T06:33:09.341Z,40.98
2022-08-08T06:34:25.706Z,39.83
2022-08-08T06:35:11.903Z,39.15
2022-08-08T06:36:09.984Z,39.47
2022-08-08T06:37:24.798Z,39.04
2022-08-08T06:38:14.231Z,38.34
2022-08-08T06:39:07.017Z,38.74
2022-08-08T06:40:05.741Z,38.92
2022-08-08T06:41:05.803Z,38.11
2022-08-08T06:42:05.689Z,37.71
2022-08-08T06:43:05.677Z,38.11
2022-08-08T06:44:05.669Z,37.93
2022-08-08T06:45:06.649Z,38.23
2022-08-08T06:46:08.654Z,38.54
2022-08-08T06:47:05.629Z,38.84
2022-08-08T06:48:05.655Z,38.62
2022-08-08T06:49:05.787Z,37.70
2022-08-08T06:50:06.592Z,37.16
2022-08-08T06:51:07.365Z,36.67
2022-08-08T06:52:05.601Z,36.47
2022-08-08T06:53:10.035Z,36.37
2022-08-08T06:54:06.542Z,36.36
2022-08-08T06:55:05.598Z,36.06
2022-08-08T06:56:05.523Z,36.46
2022-08-08T06:57:05.523Z,36.06
2022-08-08T06:58:05.975Z,36.25
2022-08-08T06:59:12.034Z,36.55
2022-08-08T07:00:11.342Z,36.55
2022-08-08T07:01:24.542Z,37.07
2022-08-08T07:02:27.295Z,36.75
2022-08-08T07:03:06.496Z,36.75
2022-08-08T07:04:38.732Z,36.47
2022-08-08T07:05:06.450Z,36.95
2022-08-08T07:06:06.426Z,37.20
2022-08-08T07:07:10.353Z,38.60
2022-08-08T07:08:06.406Z,38.39
2022-08-08T07:09:05.406Z,37.66
2022-08-08T07:10:08.280Z,36.65
2022-08-08T07:11:05.366Z,36.65
2022-08-08T07:12:05.347Z,36.87
2022-08-08T07:13:05.345Z,37.87
2022-08-08T07:14:05.327Z,37.70
2022-08-08T07:15:05.482Z,37.87
2022-08-08T07:16:10.527Z,36.85
2022-08-08T07:17:09.282Z,36.12
2022-08-08T07:18:36.476Z,36.22
2022-08-08T07:19:06.285Z,35.91
2022-08-08T07:20:05.268Z,35.93
2022-08-08T07:21:05.301Z,35.93
2022-08-08T07:22:18.451Z,36.85
2022-08-08T07:23:06.231Z,37.16
2022-08-08T07:24:05.232Z,36.34
2022-08-08T07:25:06.731Z,36.02
2022-08-08T07:26:05.212Z,35.31
2022-08-08T07:27:05.771Z,35.22
2022-08-08T07:28:07.912Z,35.12
2022-08-08T07:29:05.761Z,36.67
2022-08-08T07:30:10.008Z,37.60
2022-08-08T07:31:06.162Z,37.49
2022-08-08T07:32:05.161Z,37.38
2022-08-08T07:33:05.133Z,36.75
2022-08-08T07:34:08.724Z,36.22
2022-08-08T07:35:06.142Z,35.52
2022-08-08T07:36:05.104Z,35.71
2022-08-08T07:37:13.439Z,35.20
2022-08-08T07:38:10.419Z,35.31
2022-08-08T07:39:06.102Z,36.97
2022-08-08T07:40:05.153Z,37.54
2022-08-08T07:41:05.188Z,36.44
2022-08-08T07:42:05.508Z,35.75
2022-08-08T07:43:08.878Z,35.73
2022-08-08T07:44:33.440Z,36.02
2022-08-08T07:45:05.997Z,36.12
2022-08-08T07:46:23.503Z,36.02
2022-08-08T07:47:05.978Z,35.85
2022-08-08T07:48:05.246Z,36.32
2022-08-08T07:49:04.982Z,35.38
2022-08-08T07:50:04.979Z,34.91
2022-08-08T07:51:04.939Z,35.10
2022-08-08T07:52:04.923Z,34.89
2022-08-08T07:53:04.918Z,34.46
2022-08-08T07:54:04.900Z,34.48
2022-08-08T07:55:04.890Z,34.48
2022-08-08T07:56:04.908Z,34.08
2022-08-08T07:57:08.949Z,34.20
2022-08-08T07:58:05.864Z,35.22
2022-08-08T07:59:06.030Z,35.18
2022-08-08T08:00:04.841Z,34.77
2022-08-08T08:01:05.912Z,34.58
2022-08-08T08:02:37.035Z,34.27
2022-08-08T08:03:07.116Z,33.97
2022-08-08T08:04:04.834Z,33.54
2022-08-08T08:05:04.784Z,33.13
2022-08-08T08:06:05.777Z,33.44
2022-08-08T08:07:04.784Z,33.05
2022-08-08T08:08:04.763Z,33.05
2022-08-08T08:09:05.046Z,33.56
2022-08-08T08:10:05.133Z,33.95
2022-08-08T08:11:04.725Z,33.84
2022-08-08T08:12:04.715Z,33.87
2022-08-08T08:13:04.716Z,34.46
2022-08-08T08:14:07.670Z,33.65
2022-08-08T08:15:05.112Z,33.44
2022-08-08T08:16:04.669Z,33.15
2022-08-08T08:17:04.666Z,33.05
2022-08-08T08:18:04.675Z,33.12
2022-08-08T08:19:04.638Z,32.79
2022-08-08T08:20:04.635Z,32.43
2022-08-08T08:21:04.619Z,33.10
2022-08-08T08:22:07.817Z,32.12
2022-08-08T08:23:04.599Z,32.01
2022-08-08T08:24:04.618Z,31.09
2022-08-08T08:25:07.433Z,30.68
2022-08-08T08:26:04.579Z,30.49
2022-08-08T08:27:04.566Z,31.23
2022-08-08T08:28:04.549Z,32.64
2022-08-08T08:29:04.531Z,32.33
2022-08-08T08:30:04.563Z,32.51
2022-08-08T08:31:04.597Z,31.90
2022-08-08T08:32:05.772Z,31.89
2022-08-08T08:33:04.504Z,31.50
2022-08-08T08:34:04.491Z,31.29
2022-08-08T08:35:04.472Z,31.09
2022-08-08T08:36:17.610Z,31.43
2022-08-08T08:37:08.035Z,31.82
2022-08-08T08:38:17.230Z,32.20
2022-08-08T08:39:07.522Z,30.90
2022-08-08T08:40:05.426Z,30.77
2022-08-08T08:41:06.114Z,30.98
2022-08-08T08:42:05.404Z,30.98
2022-08-08T08:43:06.860Z,30.78
2022-08-08T08:44:13.979Z,30.16
2022-08-08T08:45:16.483Z,29.85
2022-08-08T08:46:05.777Z,30.39
2022-08-08T08:47:04.365Z,30.95
2022-08-08T08:48:04.336Z,32.89
2022-08-08T08:49:04.327Z,33.49
2022-08-08T08:50:04.327Z,33.26
2022-08-08T08:51:04.307Z,32.84
2022-08-08T08:52:04.326Z,32.12
2022-08-08T08:53:04.807Z,31.61
2022-08-08T08:54:05.277Z,31.70
2022-08-08T08:55:04.259Z,30.99
2022-08-08T08:56:04.259Z,31.27
2022-08-08T08:57:04.239Z,31.02
2022-08-08T08:58:05.258Z,30.84
2022-08-08T08:59:04.230Z,31.01
2022-08-08T09:00:05.619Z,30.80
2022-08-08T09:01:09.590Z,30.00
2022-08-08T09:02:05.261Z,29.98
2022-08-08T09:03:04.180Z,28.99
2022-08-08T09:04:04.190Z,28.92
2022-08-08T09:05:04.170Z,28.93
2022-08-08T09:06:04.162Z,30.45
2022-08-08T09:07:08.795Z,30.56
2022-08-08T09:08:12.659Z,30.45
2022-08-08T09:09:05.154Z,30.66
2022-08-08T09:10:04.714Z,30.02
2022-08-08T09:11:04.103Z,29.90
2022-08-08T09:12:07.537Z,28.88
2022-08-08T09:13:04.087Z,29.24
2022-08-08T09:14:04.082Z,27.76
2022-08-08T09:15:06.137Z,27.45
2022-08-08T09:16:04.184Z,27.36
2022-08-08T09:17:11.653Z,27.75
2022-08-08T09:18:05.685Z,27.45
2022-08-08T09:19:04.024Z,27.86
2022-08-08T09:21:57.975Z,27.10
2022-08-08T09:21:58.688Z,27.20
2022-08-08T09:22:06.471Z,27.87
2022-08-08T09:23:03.987Z,27.76
2022-08-08T09:24:04.148Z,26.77
2022-08-08T09:25:04.024Z,26.28
2022-08-08T09:26:03.987Z,26.89
2022-08-08T09:27:03.945Z,27.39
2022-08-08T09:28:04.099Z,27.61
2022-08-08T09:29:08.235Z,27.67
2022-08-08T09:30:04.918Z,27.58
2022-08-08T09:31:03.898Z,27.77
2022-08-08T09:32:04.918Z,26.40
2022-08-08T09:33:55.644Z,27.23
2022-08-08T09:34:30.616Z,27.64
2022-08-08T09:35:08.289Z,28.25
2022-08-08T09:36:03.859Z,28.58
2022-08-08T09:37:37.427Z,29.00
2022-08-08T09:38:05.861Z,29.20
2022-08-08T09:39:03.870Z,29.07
2022-08-08T09:40:08.689Z,28.08
2022-08-08T09:41:04.812Z,27.69
2022-08-08T09:42:21.331Z,27.81
2022-08-08T09:43:16.390Z,28.40
2022-08-08T09:44:13.010Z,28.30
2022-08-08T09:45:08.096Z,28.08
2022-08-08T09:46:06.591Z,27.59
2022-08-08T09:47:25.398Z,26.90
2022-08-08T09:48:16.039Z,27.18
2022-08-08T09:49:40.972Z,26.89
2022-08-08T09:50:07.526Z,27.07
2022-08-08T09:51:05.447Z,27.35
2022-08-08T09:52:06.846Z,28.55
2022-08-08T09:53:22.264Z,28.57
2022-08-08T09:54:08.447Z,28.96
2022-08-08T09:55:05.095Z,29.75
2022-08-08T09:56:06.483Z,29.39
2022-08-08T09:57:03.637Z,29.72
2022-08-08T09:58:03.633Z,29.85
2022-08-08T09:59:20.025Z,29.75
2022-08-08T10:00:34.271Z,30.57
2022-08-08T10:01:58.166Z,30.78
2022-08-08T10:02:56.275Z,31.57
2022-08-08T10:03:57.434Z,30.76
2022-08-08T10:04:56.288Z,31.06
2022-08-08T10:05:56.318Z,29.85
2022-08-08T10:06:56.239Z,31.31
2022-08-08T10:07:59.910Z,30.80
2022-08-08T10:08:56.216Z,30.00
2022-08-08T10:09:59.578Z,28.92
2022-08-08T10:10:57.217Z,28.91
2022-08-08T10:12:27.509Z,29.62
2022-08-08T10:12:57.595Z,29.46
2022-08-08T10:13:57.634Z,30.47
2022-08-08T10:14:56.148Z,30.69
2022-08-08T10:15:59.017Z,30.20
2022-08-08T10:16:58.508Z,30.89
2022-08-08T10:18:11.818Z,30.60
2022-08-08T10:18:57.107Z,30.88
2022-08-08T10:19:57.640Z,30.27
2022-08-08T10:21:00.433Z,29.96
2022-08-08T10:21:57.080Z,29.85
2022-08-08T10:22:56.111Z,29.48
2022-08-08T10:23:59.266Z,30.40
2022-08-08T10:24:56.041Z,31.79
2022-08-08T10:25:57.305Z,30.71
2022-08-08T10:26:59.699Z,31.40
2022-08-08T10:27:57.793Z,30.99
2022-08-08T10:28:56.021Z,30.00
2022-08-08T10:29:58.829Z,30.60
2022-08-08T10:31:01.051Z,30.50
2022-08-08T10:31:56.960Z,30.50
2022-08-08T10:32:55.953Z,30.60
2022-08-08T10:34:19.025Z,30.69
2022-08-08T10:35:01.089Z,30.30
2022-08-08T10:36:08.102Z,31.09
2022-08-08T10:36:56.916Z,31.19
2022-08-08T10:37:55.903Z,31.19
2022-08-08T10:38:55.893Z,31.37
2022-08-08T10:39:55.919Z,30.47
2022-08-08T10:40:55.885Z,29.99
2022-08-08T10:42:13.311Z,30.69
2022-08-08T10:42:56.856Z,31.10
2022-08-08T10:43:55.833Z,31.41
2022-08-08T10:44:55.835Z,31.32
2022-08-08T10:45:58.847Z,31.04
2022-08-08T10:46:55.805Z,32.52
2022-08-08T10:47:55.877Z,31.43
2022-08-08T10:48:59.164Z,31.93
2022-08-08T10:50:01.551Z,31.41
2022-08-08T10:50:56.787Z,31.02
2022-08-08T10:51:55.766Z,31.04
2022-08-08T10:52:55.739Z,30.94
2022-08-08T10:53:58.365Z,31.13
2022-08-08T10:54:55.719Z,31.43
2022-08-08T10:55:55.710Z,31.43
2022-08-08T10:56:55.719Z,31.43
2022-08-08T10:57:55.688Z,30.94
2022-08-08T10:58:55.679Z,31.91
2022-08-08T10:59:55.663Z,31.79
2022-08-08T11:01:05.016Z,31.10
2022-08-08T11:01:56.759Z,31.40
2022-08-08T11:02:55.649Z,30.51
2022-08-08T11:04:02.171Z,30.73
2022-08-08T11:04:56.613Z,30.92
2022-08-08T11:06:00.375Z,30.73
2022-08-08T11:06:56.591Z,31.13
2022-08-08T11:08:38.036Z,30.94
2022-08-08T11:08:56.569Z,31.23
2022-08-08T11:09:55.551Z,31.73
2022-08-08T11:10:55.545Z,30.64
2022-08-08T11:12:06.526Z,30.52
2022-08-08T11:13:12.434Z,30.23
2022-08-08T11:14:00.083Z,30.33
2022-08-08T11:14:55.505Z,31.12
2022-08-08T11:16:00.641Z,30.81
2022-08-08T11:16:56.503Z,31.38
2022-08-08T11:17:58.492Z,31.38
2022-08-08T11:18:56.475Z,30.98
2022-08-08T11:19:55.444Z,29.88
2022-08-08T11:20:55.443Z,29.47
2022-08-08T11:21:56.392Z,29.75
2022-08-08T11:22:55.415Z,29.25
2022-08-08T11:24:02.212Z,29.44
2022-08-08T11:24:56.394Z,29.25
2022-08-08T11:25:57.385Z,29.06
2022-08-08T11:26:57.247Z,30.26
2022-08-08T11:27:55.357Z,30.96
2022-08-08T11:28:55.348Z,30.17
2022-08-08T11:30:19.388Z,30.00
2022-08-08T11:30:56.345Z,30.81
2022-08-08T11:31:55.317Z,30.92
2022-08-08T11:32:55.309Z,31.12
2022-08-08T11:34:01.944Z,30.92
2022-08-08T11:35:10.474Z,31.71
2022-08-08T11:35:56.272Z,31.70
2022-08-08T11:36:58.796Z,31.09
2022-08-08T11:38:39.021Z,30.79
2022-08-08T11:38:56.273Z,31.09
2022-08-08T11:39:57.368Z,31.38
2022-08-08T11:40:55.238Z,30.60
2022-08-08T11:41:55.209Z,31.29
2022-08-08T11:42:55.201Z,31.07
2022-08-08T11:43:58.083Z,31.27
2022-08-08T11:44:55.171Z,30.76
2022-08-08T11:46:09.544Z,30.27
2022-08-08T11:46:56.159Z,29.88
2022-08-08T11:48:04.449Z,30.68
2022-08-08T11:48:56.135Z,30.96
2022-08-08T11:49:55.132Z,29.97
2022-08-08T11:50:55.353Z,31.26
2022-08-08T11:51:55.131Z,31.14
2022-08-08T11:52:55.092Z,30.45
2022-08-08T11:53:59.095Z,30.06
2022-08-08T11:54:56.076Z,29.86
2022-08-08T11:55:55.442Z,29.96
2022-08-08T11:56:56.559Z,30.65
2022-08-08T11:57:59.848Z,30.65
2022-08-08T11:58:56.023Z,30.35
2022-08-08T11:59:58.512Z,31.52
2022-08-08T12:00:56.003Z,31.82
2022-08-08T12:02:09.724Z,29.27
2022-08-08T12:02:56.104Z,29.57
2022-08-08T12:03:59.286Z,29.17
2022-08-08T12:04:54.966Z,30.17
2022-08-08T12:05:54.944Z,29.99
2022-08-08T12:06:54.935Z,29.80
2022-08-08T12:07:56.092Z,29.91
2022-08-08T12:08:54.946Z,30.71
2022-08-08T12:09:59.544Z,30.32
2022-08-08T12:10:55.896Z,30.32
2022-08-08T12:11:54.898Z,30.32
2022-08-08T12:12:54.879Z,30.32
2022-08-08T12:14:03.907Z,30.51
2022-08-08T12:14:56.665Z,30.41
2022-08-08T12:15:55.546Z,30.71
2022-08-08T12:16:54.827Z,30.99
2022-08-08T12:17:54.821Z,30.30
2022-08-08T12:18:54.818Z,30.10
2022-08-08T12:19:54.814Z,30.30
2022-08-08T12:20:54.942Z,30.50
2022-08-08T12:21:59.218Z,30.40
2022-08-08T12:22:57.083Z,30.30
2022-08-08T12:23:59.330Z,30.58
2022-08-08T12:24:56.575Z,30.29
2022-08-08T12:25:55.034Z,29.60
2022-08-08T12:26:54.751Z,30.19
2022-08-08T12:27:54.713Z,30.58
2022-08-08T12:28:54.700Z,30.98
2022-08-08T12:29:54.692Z,30.58
2022-08-08T12:30:54.683Z,29.79
2022-08-08T12:31:54.768Z,29.89
2022-08-08T12:32:54.683Z,30.66
2022-08-08T12:34:02.613Z,30.17
2022-08-08T12:35:01.418Z,29.68
2022-08-08T12:35:55.632Z,29.28
2022-08-08T12:36:54.613Z,29.88
2022-08-08T12:38:02.218Z,29.38
2022-08-08T12:38:55.859Z,30.78
2022-08-08T12:40:01.796Z,30.76
2022-08-08T12:40:58.494Z,30.94
2022-08-08T12:42:01.308Z,29.57
2022-08-08T12:42:55.581Z,30.17
2022-08-08T12:44:00.093Z,30.27
2022-08-08T12:44:55.524Z,29.47
2022-08-08T12:46:02.353Z,29.37
2022-08-08T12:46:59.304Z,29.76
2022-08-08T12:48:04.905Z,30.63
2022-08-08T12:49:22.131Z,29.94
2022-08-08T12:49:55.486Z,29.75
2022-08-08T12:50:54.465Z,30.72
2022-08-08T12:52:00.691Z,29.34